Terminal Aerodrome Forecast
Issued by NWS

Home | Current Version | Previous Version | Text Only | Print | Product List | Glossary On
Versions: 1 2 3 4 5 6 7 8 9 10 11 12 13 14 15 16 17 18 19 20 21
000
FTUS41 KOKX 052320
TAFSWF
TAF
KSWF 052320Z 0600/0706 25005KT P6SM FEW250
     FM060200 VRB02KT P6SM FEW250
     FM060600 VRB02KT 4SM BR FEW003 SCT250
      TEMPO 0609/0611 2SM BR SCT003
     FM061400 23005KT P6SM FEW020 SCT250
     FM061800 20008KT P6SM SCT050 BKN250
     FM070100 16005KT P6SM FEW150 SCT250
     FM070300 VRB03KT 5SM BR SCT030
      AMD NOT SKED=

USA.gov is the U.S. government's official web portal to all federal, state and local government web resources and services.